Main page
METAR-TAF:

METAR-TAF

Airports :

Strasbourg Airport

Strasbourg, France

latitude: 48-33N, longitude: 007-38E, elevation: 153 m

Current weather observation

The report was made 28 minutes ago, at 05:30 UTC
Wind 1 kt from the South
Temperature 0°C
Humidity 93%
Pressure 1025 hPa
Visibility 10 km or more
Overcast at a height of 6000 ft

METAR: LFST 110530Z AUTO 19001KT 9999 OVC060 00/M01 Q1025 NOSIG

Time: 06:58 (05:58 UTC)

Forecast

The report was made 58 minutes ago, at 05:00 UTC
Forecast valid from 11 at 06 UTC to 12 at 06 UTC
Wind 2 kt from variable directions
Visibility 10 km or more
Few clouds at a height of 2500 ft
Broken clouds at a height of 6000 ft
Becoming
from 11 at 22 UTC to 12 at 01 UTC
Visibility: 0300 m
freezing fog
Becoming
from 12 at 02 UTC to 12 at 06 UTC
Visibility 10 km or more
Broken clouds at a height of 400 ft

TAF: LFST 110500Z 1106/1206 VRB02KT 9999 FEW025 BKN060 BECMG 1122/1201 0300 FZFG VV/// BECMG 1202/1206 9999 NSW BKN004

Weather observations and forecasts of more than 4000 airports (METAR and TAF reports).

The available stations are represented by yellow and red dots on the map.

Hover mouse over dot to see the name of the station.

Then click to see weather observations and forecasts.

To change the map : click on the green buttons with a black cross to zoom in, on the green button with a dash to zoom out, or on the green arrows for adjacent maps.


METAR-TAF: